sensor_id;sensor_type;location;lat;lon;timestamp;pressure;altitude;pressure_sealevel;temperature
71564;BMP180;59391;52.504;13.438;2022-11-15T00:01:47;101114.00;;;10.80
71564;BMP180;59391;52.504;13.438;2022-11-15T00:04:13;101119.00;;;10.70
71564;BMP180;59391;52.504;13.438;2022-11-15T00:06:38;101095.00;;;10.70
71564;BMP180;59391;52.504;13.438;2022-11-15T00:09:04;101118.00;;;10.70
71564;BMP180;59391;52.504;13.438;2022-11-15T00:11:30;101125.00;;;10.70
71564;BMP180;59391;52.504;13.438;2022-11-15T00:13:57;101103.00;;;10.70
71564;BMP180;59391;52.504;13.438;2022-11-15T00:16:24;101115.00;;;10.70
71564;BMP180;59391;52.504;13.438;2022-11-15T00:18:50;101110.00;;;10.60
71564;BMP180;59391;52.504;13.438;2022-11-15T00:21:17;101087.00;;;10.60
71564;BMP180;59391;52.504;13.438;2022-11-15T00:23:43;101106.00;;;10.60
71564;BMP180;59391;52.504;13.438;2022-11-15T00:26:14;101089.00;;;10.60
71564;BMP180;59391;52.504;13.438;2022-11-15T00:28:41;101086.00;;;10.60
71564;BMP180;59391;52.504;13.438;2022-11-15T00:31:11;101070.00;;;10.50
71564;BMP180;59391;52.504;13.438;2022-11-15T00:33:37;101093.00;;;10.50
71564;BMP180;59391;52.504;13.438;2022-11-15T00:36:06;101076.00;;;10.50
71564;BMP180;59391;52.504;13.438;2022-11-15T00:38:35;101085.00;;;10.50
71564;BMP180;59391;52.504;13.438;2022-11-15T00:41:02;101086.00;;;10.40
71564;BMP180;59391;52.504;13.438;2022-11-15T00:43:29;101077.00;;;10.40
71564;BMP180;59391;52.504;13.438;2022-11-15T00:45:54;101052.00;;;10.40
71564;BMP180;59391;52.504;13.438;2022-11-15T00:48:20;101089.00;;;10.40
71564;BMP180;59391;52.504;13.438;2022-11-15T00:50:46;101047.00;;;10.30
71564;BMP180;59391;52.504;13.438;2022-11-15T00:53:11;101070.00;;;10.30
71564;BMP180;59391;52.504;13.438;2022-11-15T00:55:37;101046.00;;;10.30
71564;BMP180;59391;52.504;13.438;2022-11-15T00:58:03;101058.00;;;10.30
71564;BMP180;59391;52.504;13.438;2022-11-15T01:00:28;101072.00;;;10.20
71564;BMP180;59391;52.504;13.438;2022-11-15T01:02:54;101060.00;;;10.20
71564;BMP180;59391;52.504;13.438;2022-11-15T01:05:20;101074.00;;;10.20
71564;BMP180;59391;52.504;13.438;2022-11-15T01:07:46;101072.00;;;10.10
71564;BMP180;59391;52.504;13.438;2022-11-15T01:10:12;101043.00;;;10.20
71564;BMP180;59391;52.504;13.438;2022-11-15T01:12:37;101070.00;;;10.20
71564;BMP180;59391;52.504;13.438;2022-11-15T01:15:05;101057.00;;;10.10
71564;BMP180;59391;52.504;13.438;2022-11-15T01:17:31;101061.00;;;10.10
71564;BMP180;59391;52.504;13.438;2022-11-15T01:19:57;101056.00;;;10.10
71564;BMP180;59391;52.504;13.438;2022-11-15T01:22:22;101058.00;;;10.10
71564;BMP180;59391;52.504;13.438;2022-11-15T01:24:51;101060.00;;;10.00
71564;BMP180;59391;52.504;13.438;2022-11-15T01:27:17;101054.00;;;10.00
71564;BMP180;59391;52.504;13.438;2022-11-15T01:29:43;101052.00;;;10.00
71564;BMP180;59391;52.504;13.438;2022-11-15T01:32:08;101033.00;;;10.00
71564;BMP180;59391;52.504;13.438;2022-11-15T01:34:34;101051.00;;;10.00
71564;BMP180;59391;52.504;13.438;2022-11-15T01:37:00;101045.00;;;9.90
71564;BMP180;59391;52.504;13.438;2022-11-15T01:39:27;101018.00;;;9.90
71564;BMP180;59391;52.504;13.438;2022-11-15T01:41:53;101041.00;;;9.90
71564;BMP180;59391;52.504;13.438;2022-11-15T01:47:06;101030.00;;;9.90
71564;BMP180;59391;52.504;13.438;2022-11-15T01:49:38;101025.00;;;9.80
71564;BMP180;59391;52.504;13.438;2022-11-15T01:52:13;101007.00;;;9.80
71564;BMP180;59391;52.504;13.438;2022-11-15T01:54:42;101020.00;;;9.80
71564;BMP180;59391;52.504;13.438;2022-11-15T01:57:10;101003.00;;;9.80
71564;BMP180;59391;52.504;13.438;2022-11-15T01:59:41;101007.00;;;9.80
71564;BMP180;59391;52.504;13.438;2022-11-15T02:02:08;100983.00;;;9.70
71564;BMP180;59391;52.504;13.438;2022-11-15T02:04:41;101013.00;;;9.80
71564;BMP180;59391;52.504;13.438;2022-11-15T02:07:10;100999.00;;;9.80
71564;BMP180;59391;52.504;13.438;2022-11-15T02:09:38;101006.00;;;9.80
71564;BMP180;59391;52.504;13.438;2022-11-15T02:12:10;100993.00;;;9.80
71564;BMP180;59391;52.504;13.438;2022-11-15T02:14:43;100979.00;;;9.80
71564;BMP180;59391;52.504;13.438;2022-11-15T02:17:29;100981.00;;;9.80
71564;BMP180;59391;52.504;13.438;2022-11-15T02:20:39;100994.00;;;9.80
71564;BMP180;59391;52.504;13.438;2022-11-15T02:32:44;100999.00;;;9.60
71564;BMP180;59391;52.504;13.438;2022-11-15T02:35:42;100999.00;;;9.70
71564;BMP180;59391;52.504;13.438;2022-11-15T02:38:55;100985.00;;;9.60
71564;BMP180;59391;52.504;13.438;2022-11-15T02:41:30;100994.00;;;9.60
71564;BMP180;59391;52.504;13.438;2022-11-15T02:44:04;100984.00;;;9.60
71564;BMP180;59391;52.504;13.438;2022-11-15T02:47:02;100987.00;;;9.60
71564;BMP180;59391;52.504;13.438;2022-11-15T02:49:45;100985.00;;;9.60
71564;BMP180;59391;52.504;13.438;2022-11-15T02:52:24;100972.00;;;9.60
71564;BMP180;59391;52.504;13.438;2022-11-15T02:54:59;100974.00;;;9.60
71564;BMP180;59391;52.504;13.438;2022-11-15T02:57:51;100977.00;;;9.60
71564;BMP180;59391;52.504;13.438;2022-11-15T03:00:19;100980.00;;;9.60
71564;BMP180;59391;52.504;13.438;2022-11-15T03:06:15;100976.00;;;9.60
71564;BMP180;59391;52.504;13.438;2022-11-15T03:09:09;100980.00;;;9.60
71564;BMP180;59391;52.504;13.438;2022-11-15T03:11:50;100974.00;;;9.60
71564;BMP180;59391;52.504;13.438;2022-11-15T03:17:30;100937.00;;;9.60
71564;BMP180;59391;52.504;13.438;2022-11-15T03:20:01;100965.00;;;9.60
71564;BMP180;59391;52.504;13.438;2022-11-15T03:22:35;100947.00;;;9.60
71564;BMP180;59391;52.504;13.438;2022-11-15T03:25:10;100965.00;;;9.60
71564;BMP180;59391;52.504;13.438;2022-11-15T03:27:44;100959.00;;;9.60
71564;BMP180;59391;52.504;13.438;2022-11-15T03:30:13;100975.00;;;9.60
71564;BMP180;59391;52.504;13.438;2022-11-15T03:32:50;100953.00;;;9.60
71564;BMP180;59391;52.504;13.438;2022-11-15T03:35:25;100937.00;;;9.60
71564;BMP180;59391;52.504;13.438;2022-11-15T03:40:59;100967.00;;;9.60
71564;BMP180;59391;52.504;13.438;2022-11-15T03:46:14;100962.00;;;9.70
71564;BMP180;59391;52.504;13.438;2022-11-15T03:48:52;100966.00;;;9.70
71564;BMP180;59391;52.504;13.438;2022-11-15T03:51:19;100962.00;;;9.70
71564;BMP180;59391;52.504;13.438;2022-11-15T03:53:46;100940.00;;;9.70
71564;BMP180;59391;52.504;13.438;2022-11-15T03:56:11;100952.00;;;9.70
71564;BMP180;59391;52.504;13.438;2022-11-15T03:58:37;100952.00;;;9.70
71564;BMP180;59391;52.504;13.438;2022-11-15T04:01:03;100942.00;;;9.70
71564;BMP180;59391;52.504;13.438;2022-11-15T04:03:28;100936.00;;;9.70
71564;BMP180;59391;52.504;13.438;2022-11-15T04:05:54;100929.00;;;9.70
71564;BMP180;59391;52.504;13.438;2022-11-15T04:08:20;100953.00;;;9.70
71564;BMP180;59391;52.504;13.438;2022-11-15T04:10:48;100942.00;;;9.70
71564;BMP180;59391;52.504;13.438;2022-11-15T04:13:14;100955.00;;;9.70
71564;BMP180;59391;52.504;13.438;2022-11-15T04:15:39;100943.00;;;9.70
71564;BMP180;59391;52.504;13.438;2022-11-15T04:18:05;100937.00;;;9.70
71564;BMP180;59391;52.504;13.438;2022-11-15T04:20:31;100950.00;;;9.70
71564;BMP180;59391;52.504;13.438;2022-11-15T04:23:22;100941.00;;;9.70
71564;BMP180;59391;52.504;13.438;2022-11-15T04:26:17;100946.00;;;9.70
71564;BMP180;59391;52.504;13.438;2022-11-15T04:28:43;100923.00;;;9.70
71564;BMP180;59391;52.504;13.438;2022-11-15T04:31:28;100935.00;;;9.70
71564;BMP180;59391;52.504;13.438;2022-11-15T04:33:55;100938.00;;;9.70
71564;BMP180;59391;52.504;13.438;2022-11-15T04:36:21;100921.00;;;9.70
71564;BMP180;59391;52.504;13.438;2022-11-15T04:39:06;100924.00;;;9.70
71564;BMP180;59391;52.504;13.438;2022-11-15T04:41:32;100930.00;;;9.70
71564;BMP180;59391;52.504;13.438;2022-11-15T04:43:58;100929.00;;;9.70
71564;BMP180;59391;52.504;13.438;2022-11-15T04:46:24;100944.00;;;9.70
71564;BMP180;59391;52.504;13.438;2022-11-15T04:48:51;100928.00;;;9.70
71564;BMP180;59391;52.504;13.438;2022-11-15T04:51:17;100937.00;;;9.70
71564;BMP180;59391;52.504;13.438;2022-11-15T04:53:43;100948.00;;;9.70
71564;BMP180;59391;52.504;13.438;2022-11-15T04:56:09;100932.00;;;9.70
71564;BMP180;59391;52.504;13.438;2022-11-15T04:58:34;100909.00;;;9.70
71564;BMP180;59391;52.504;13.438;2022-11-15T05:01:11;100919.00;;;9.70
71564;BMP180;59391;52.504;13.438;2022-11-15T05:03:37;100928.00;;;9.70
71564;BMP180;59391;52.504;13.438;2022-11-15T05:06:22;100928.00;;;9.70
71564;BMP180;59391;52.504;13.438;2022-11-15T05:08:51;100908.00;;;9.70
71564;BMP180;59391;52.504;13.438;2022-11-15T05:11:16;100937.00;;;9.70
71564;BMP180;59391;52.504;13.438;2022-11-15T05:13:42;100926.00;;;9.70
71564;BMP180;59391;52.504;13.438;2022-11-15T05:16:08;100924.00;;;9.70
71564;BMP180;59391;52.504;13.438;2022-11-15T05:18:34;100907.00;;;9.70
71564;BMP180;59391;52.504;13.438;2022-11-15T05:21:08;100930.00;;;9.70
71564;BMP180;59391;52.504;13.438;2022-11-15T05:23:35;100924.00;;;9.70
71564;BMP180;59391;52.504;13.438;2022-11-15T05:26:03;100913.00;;;9.70
71564;BMP180;59391;52.504;13.438;2022-11-15T05:28:29;100933.00;;;9.70
71564;BMP180;59391;52.504;13.438;2022-11-15T05:31:10;100924.00;;;9.70
71564;BMP180;59391;52.504;13.438;2022-11-15T05:33:38;100922.00;;;9.70
71564;BMP180;59391;52.504;13.438;2022-11-15T05:38:38;100930.00;;;9.70
71564;BMP180;59391;52.504;13.438;2022-11-15T05:41:05;100924.00;;;9.70
71564;BMP180;59391;52.504;13.438;2022-11-15T05:43:35;100922.00;;;9.70
71564;BMP180;59391;52.504;13.438;2022-11-15T05:46:04;100931.00;;;9.70
71564;BMP180;59391;52.504;13.438;2022-11-15T05:48:30;100913.00;;;9.70
71564;BMP180;59391;52.504;13.438;2022-11-15T05:50:56;100932.00;;;9.70
71564;BMP180;59391;52.504;13.438;2022-11-15T05:53:24;100930.00;;;9.70
71564;BMP180;59391;52.504;13.438;2022-11-15T05:55:51;100920.00;;;9.80
71564;BMP180;59391;52.504;13.438;2022-11-15T05:58:18;100928.00;;;9.80
71564;BMP180;59391;52.504;13.438;2022-11-15T06:00:45;100920.00;;;9.80
71564;BMP180;59391;52.504;13.438;2022-11-15T06:03:11;100915.00;;;9.80
71564;BMP180;59391;52.504;13.438;2022-11-15T06:05:39;100943.00;;;9.80
71564;BMP180;59391;52.504;13.438;2022-11-15T06:08:05;100936.00;;;9.80
71564;BMP180;59391;52.504;13.438;2022-11-15T06:10:32;100880.00;;;9.80
71564;BMP180;59391;52.504;13.438;2022-11-15T06:13:06;100939.00;;;9.80
71564;BMP180;59391;52.504;13.438;2022-11-15T06:15:34;100962.00;;;9.80
71564;BMP180;59391;52.504;13.438;2022-11-15T06:18:00;100907.00;;;9.80
71564;BMP180;59391;52.504;13.438;2022-11-15T06:20:28;100940.00;;;9.80
71564;BMP180;59391;52.504;13.438;2022-11-15T06:23:04;100901.00;;;9.80
71564;BMP180;59391;52.504;13.438;2022-11-15T06:25:30;100953.00;;;9.80
71564;BMP180;59391;52.504;13.438;2022-11-15T06:27:58;100949.00;;;9.80
71564;BMP180;59391;52.504;13.438;2022-11-15T06:30:27;100959.00;;;9.80
71564;BMP180;59391;52.504;13.438;2022-11-15T06:33:03;100953.00;;;9.80
71564;BMP180;59391;52.504;13.438;2022-11-15T06:35:32;100956.00;;;9.80
71564;BMP180;59391;52.504;13.438;2022-11-15T06:38:08;100943.00;;;9.80
71564;BMP180;59391;52.504;13.438;2022-11-15T06:40:36;100931.00;;;9.80
71564;BMP180;59391;52.504;13.438;2022-11-15T06:43:04;100954.00;;;9.80
71564;BMP180;59391;52.504;13.438;2022-11-15T06:45:30;100947.00;;;9.80
71564;BMP180;59391;52.504;13.438;2022-11-15T06:47:56;100956.00;;;9.60
71564;BMP180;59391;52.504;13.438;2022-11-15T06:50:23;100932.00;;;9.80
71564;BMP180;59391;52.504;13.438;2022-11-15T06:52:49;100951.00;;;9.90
71564;BMP180;59391;52.504;13.438;2022-11-15T06:55:14;100953.00;;;9.90
71564;BMP180;59391;52.504;13.438;2022-11-15T06:57:49;100953.00;;;9.90
71564;BMP180;59391;52.504;13.438;2022-11-15T07:00:44;100946.00;;;10.00
71564;BMP180;59391;52.504;13.438;2022-11-15T07:03:09;100924.00;;;10.00
71564;BMP180;59391;52.504;13.438;2022-11-15T07:05:36;100929.00;;;9.70
71564;BMP180;59391;52.504;13.438;2022-11-15T07:08:02;100952.00;;;10.00
71564;BMP180;59391;52.504;13.438;2022-11-15T07:10:28;100944.00;;;10.00
71564;BMP180;59391;52.504;13.438;2022-11-15T07:12:55;100941.00;;;10.00
71564;BMP180;59391;52.504;13.438;2022-11-15T07:15:25;100949.00;;;10.10
71564;BMP180;59391;52.504;13.438;2022-11-15T07:17:51;100968.00;;;10.10
71564;BMP180;59391;52.504;13.438;2022-11-15T07:20:17;100964.00;;;10.20
71564;BMP180;59391;52.504;13.438;2022-11-15T07:22:43;100970.00;;;10.30
71564;BMP180;59391;52.504;13.438;2022-11-15T07:25:12;100953.00;;;10.50
71564;BMP180;59391;52.504;13.438;2022-11-15T07:27:38;100977.00;;;10.60
71564;BMP180;59391;52.504;13.438;2022-11-15T07:30:05;100984.00;;;10.80
71564;BMP180;59391;52.504;13.438;2022-11-15T07:32:31;100981.00;;;10.90
71564;BMP180;59391;52.504;13.438;2022-11-15T07:34:56;100964.00;;;11.10
71564;BMP180;59391;52.504;13.438;2022-11-15T07:37:22;100967.00;;;11.20
71564;BMP180;59391;52.504;13.438;2022-11-15T07:39:48;100965.00;;;11.40
71564;BMP180;59391;52.504;13.438;2022-11-15T07:42:13;100979.00;;;11.50
71564;BMP180;59391;52.504;13.438;2022-11-15T07:45:05;100964.00;;;11.60
71564;BMP180;59391;52.504;13.438;2022-11-15T07:47:31;100971.00;;;11.70
71564;BMP180;59391;52.504;13.438;2022-11-15T07:49:57;100971.00;;;11.70
71564;BMP180;59391;52.504;13.438;2022-11-15T07:52:22;100936.00;;;11.70
71564;BMP180;59391;52.504;13.438;2022-11-15T07:54:48;100966.00;;;11.70
71564;BMP180;59391;52.504;13.438;2022-11-15T07:57:14;100954.00;;;11.80
71564;BMP180;59391;52.504;13.438;2022-11-15T07:59:39;100962.00;;;11.80
71564;BMP180;59391;52.504;13.438;2022-11-15T08:02:05;100973.00;;;11.80
71564;BMP180;59391;52.504;13.438;2022-11-15T08:04:30;100960.00;;;11.90
71564;BMP180;59391;52.504;13.438;2022-11-15T08:06:56;100950.00;;;11.90
71564;BMP180;59391;52.504;13.438;2022-11-15T08:09:22;100953.00;;;11.90
71564;BMP180;59391;52.504;13.438;2022-11-15T08:11:48;100948.00;;;11.90
71564;BMP180;59391;52.504;13.438;2022-11-15T08:14:13;100944.00;;;12.00
71564;BMP180;59391;52.504;13.438;2022-11-15T08:16:39;100951.00;;;12.00
71564;BMP180;59391;52.504;13.438;2022-11-15T08:19:07;100931.00;;;12.10
71564;BMP180;59391;52.504;13.438;2022-11-15T08:21:33;100952.00;;;12.10
71564;BMP180;59391;52.504;13.438;2022-11-15T08:23:58;100958.00;;;12.20
71564;BMP180;59391;52.504;13.438;2022-11-15T08:26:24;100946.00;;;12.20
71564;BMP180;59391;52.504;13.438;2022-11-15T08:28:52;100959.00;;;12.40
71564;BMP180;59391;52.504;13.438;2022-11-15T08:31:18;100946.00;;;12.50
71564;BMP180;59391;52.504;13.438;2022-11-15T08:33:45;100942.00;;;12.50
71564;BMP180;59391;52.504;13.438;2022-11-15T08:36:16;100946.00;;;12.60
71564;BMP180;59391;52.504;13.438;2022-11-15T08:38:42;100943.00;;;12.70
71564;BMP180;59391;52.504;13.438;2022-11-15T08:41:23;100944.00;;;12.70
71564;BMP180;59391;52.504;13.438;2022-11-15T08:43:50;100942.00;;;12.90
71564;BMP180;59391;52.504;13.438;2022-11-15T08:46:15;100944.00;;;13.20
71564;BMP180;59391;52.504;13.438;2022-11-15T08:48:41;100940.00;;;13.40
71564;BMP180;59391;52.504;13.438;2022-11-15T08:51:06;100939.00;;;13.60
71564;BMP180;59391;52.504;13.438;2022-11-15T08:53:33;100948.00;;;13.70
71564;BMP180;59391;52.504;13.438;2022-11-15T08:55:58;100942.00;;;13.80
71564;BMP180;59391;52.504;13.438;2022-11-15T08:58:24;100950.00;;;13.90
71564;BMP180;59391;52.504;13.438;2022-11-15T09:00:51;100945.00;;;14.00
71564;BMP180;59391;52.504;13.438;2022-11-15T09:03:16;100943.00;;;14.10
71564;BMP180;59391;52.504;13.438;2022-11-15T09:05:42;100948.00;;;14.20
71564;BMP180;59391;52.504;13.438;2022-11-15T09:08:08;100955.00;;;14.40
71564;BMP180;59391;52.504;13.438;2022-11-15T09:10:36;100953.00;;;14.70
71564;BMP180;59391;52.504;13.438;2022-11-15T09:13:02;100951.00;;;14.90
71564;BMP180;59391;52.504;13.438;2022-11-15T09:15:27;100948.00;;;15.20
71564;BMP180;59391;52.504;13.438;2022-11-15T09:17:53;100958.00;;;15.60
71564;BMP180;59391;52.504;13.438;2022-11-15T09:20:19;100945.00;;;15.90
71564;BMP180;59391;52.504;13.438;2022-11-15T09:22:44;100941.00;;;16.30
71564;BMP180;59391;52.504;13.438;2022-11-15T09:25:10;100940.00;;;16.70
71564;BMP180;59391;52.504;13.438;2022-11-15T09:27:36;100944.00;;;17.10
71564;BMP180;59391;52.504;13.438;2022-11-15T09:30:02;100941.00;;;17.60
71564;BMP180;59391;52.504;13.438;2022-11-15T09:32:30;100953.00;;;18.20
71564;BMP180;59391;52.504;13.438;2022-11-15T09:34:57;100943.00;;;18.80
71564;BMP180;59391;52.504;13.438;2022-11-15T09:37:23;100955.00;;;19.40
71564;BMP180;59391;52.504;13.438;2022-11-15T09:39:48;100946.00;;;19.90
71564;BMP180;59391;52.504;13.438;2022-11-15T09:45:51;100937.00;;;21.20
71564;BMP180;59391;52.504;13.438;2022-11-15T09:48:49;100959.00;;;21.70
71564;BMP180;59391;52.504;13.438;2022-11-15T09:51:32;100948.00;;;22.20
71564;BMP180;59391;52.504;13.438;2022-11-15T09:56:35;100943.00;;;22.90
71564;BMP180;59391;52.504;13.438;2022-11-15T10:05:00;100937.00;;;23.80
71564;BMP180;59391;52.504;13.438;2022-11-15T10:07:37;100932.00;;;24.00
71564;BMP180;59391;52.504;13.438;2022-11-15T10:10:27;100917.00;;;24.20
71564;BMP180;59391;52.504;13.438;2022-11-15T10:12:55;100929.00;;;24.30
71564;BMP180;59391;52.504;13.438;2022-11-15T10:15:21;100924.00;;;24.60
71564;BMP180;59391;52.504;13.438;2022-11-15T10:18:17;100928.00;;;25.00
71564;BMP180;59391;52.504;13.438;2022-11-15T10:21:00;100919.00;;;25.40
71564;BMP180;59391;52.504;13.438;2022-11-15T10:23:29;100913.00;;;25.70
71564;BMP180;59391;52.504;13.438;2022-11-15T10:25:58;100906.00;;;25.80
71564;BMP180;59391;52.504;13.438;2022-11-15T10:28:31;100883.00;;;26.00
71564;BMP180;59391;52.504;13.438;2022-11-15T10:30:59;100894.00;;;26.30
71564;BMP180;59391;52.504;13.438;2022-11-15T10:33:34;100903.00;;;26.70
71564;BMP180;59391;52.504;13.438;2022-11-15T10:36:19;100901.00;;;26.30
71564;BMP180;59391;52.504;13.438;2022-11-15T10:41:20;100891.00;;;24.90
71564;BMP180;59391;52.504;13.438;2022-11-15T10:46:35;100872.00;;;23.60
71564;BMP180;59391;52.504;13.438;2022-11-15T10:49:17;100861.00;;;22.90
71564;BMP180;59391;52.504;13.438;2022-11-15T10:55:00;100859.00;;;21.70
71564;BMP180;59391;52.504;13.438;2022-11-15T10:57:34;100838.00;;;21.20
71564;BMP180;59391;52.504;13.438;2022-11-15T11:03:02;100852.00;;;20.60
71564;BMP180;59391;52.504;13.438;2022-11-15T11:05:39;100850.00;;;20.30
71564;BMP180;59391;52.504;13.438;2022-11-15T11:10:37;100817.00;;;19.90
71564;BMP180;59391;52.504;13.438;2022-11-15T11:13:33;100834.00;;;19.60
71564;BMP180;59391;52.504;13.438;2022-11-15T11:16:43;100843.00;;;19.40
71564;BMP180;59391;52.504;13.438;2022-11-15T11:26:02;100839.00;;;21.90
71564;BMP180;59391;52.504;13.438;2022-11-15T11:29:18;100831.00;;;22.70
71564;BMP180;59391;52.504;13.438;2022-11-15T11:32:18;100827.00;;;23.50
71564;BMP180;59391;52.504;13.438;2022-11-15T11:35:11;100826.00;;;24.30
71564;BMP180;59391;52.504;13.438;2022-11-15T11:40:29;100825.00;;;25.40
71564;BMP180;59391;52.504;13.438;2022-11-15T11:48:40;100838.00;;;26.40
71564;BMP180;59391;52.504;13.438;2022-11-15T11:51:26;100812.00;;;26.70
71564;BMP180;59391;52.504;13.438;2022-11-15T11:54:37;100801.00;;;27.40
71564;BMP180;59391;52.504;13.438;2022-11-15T11:57:25;100821.00;;;28.10
71564;BMP180;59391;52.504;13.438;2022-11-15T12:00:03;100831.00;;;28.40
71564;BMP180;59391;52.504;13.438;2022-11-15T12:02:39;100818.00;;;28.70
71564;BMP180;59391;52.504;13.438;2022-11-15T12:05:40;100819.00;;;28.90
71564;BMP180;59391;52.504;13.438;2022-11-15T12:08:52;100812.00;;;29.30
71564;BMP180;59391;52.504;13.438;2022-11-15T12:17:24;100800.00;;;30.70
71564;BMP180;59391;52.504;13.438;2022-11-15T12:19:56;100804.00;;;30.80
71564;BMP180;59391;52.504;13.438;2022-11-15T12:22:39;100803.00;;;31.10
71564;BMP180;59391;52.504;13.438;2022-11-15T12:25:21;100801.00;;;31.40
71564;BMP180;59391;52.504;13.438;2022-11-15T12:28:02;100806.00;;;31.30
71564;BMP180;59391;52.504;13.438;2022-11-15T12:33:42;100798.00;;;30.50
71564;BMP180;59391;52.504;13.438;2022-11-15T12:36:35;100797.00;;;30.10
71564;BMP180;59391;52.504;13.438;2022-11-15T12:39:14;100799.00;;;29.80
71564;BMP180;59391;52.504;13.438;2022-11-15T12:59:51;100768.00;;;27.90
71564;BMP180;59391;52.504;13.438;2022-11-15T13:02:44;100772.00;;;27.80
71564;BMP180;59391;52.504;13.438;2022-11-15T13:17:53;100761.00;;;26.70
71564;BMP180;59391;52.504;13.438;2022-11-15T13:20:30;100756.00;;;26.60
71564;BMP180;59391;52.504;13.438;2022-11-15T13:23:08;100749.00;;;26.60
71564;BMP180;59391;52.504;13.438;2022-11-15T13:26:03;100754.00;;;26.50
71564;BMP180;59391;52.504;13.438;2022-11-15T13:28:42;100747.00;;;26.20
71564;BMP180;59391;52.504;13.438;2022-11-15T13:31:34;100741.00;;;25.80
71564;BMP180;59391;52.504;13.438;2022-11-15T13:34:26;100738.00;;;25.70
71564;BMP180;59391;52.504;13.438;2022-11-15T13:36:52;100737.00;;;25.60
71564;BMP180;59391;52.504;13.438;2022-11-15T13:39:33;100737.00;;;25.50
71564;BMP180;59391;52.504;13.438;2022-11-15T13:42:00;100745.00;;;25.40
71564;BMP180;59391;52.504;13.438;2022-11-15T13:44:30;100742.00;;;25.20
71564;BMP180;59391;52.504;13.438;2022-11-15T13:47:14;100747.00;;;25.10
71564;BMP180;59391;52.504;13.438;2022-11-15T13:49:41;100744.00;;;25.00
71564;BMP180;59391;52.504;13.438;2022-11-15T13:52:15;100742.00;;;25.10
71564;BMP180;59391;52.504;13.438;2022-11-15T13:55:05;100746.00;;;25.10
71564;BMP180;59391;52.504;13.438;2022-11-15T13:57:48;100730.00;;;25.20
71564;BMP180;59391;52.504;13.438;2022-11-15T14:03:15;100730.00;;;25.10
71564;BMP180;59391;52.504;13.438;2022-11-15T14:05:41;100736.00;;;25.00
71564;BMP180;59391;52.504;13.438;2022-11-15T14:08:23;100739.00;;;24.80
71564;BMP180;59391;52.504;13.438;2022-11-15T14:11:14;100741.00;;;24.50
71564;BMP180;59391;52.504;13.438;2022-11-15T14:14:00;100738.00;;;24.20
71564;BMP180;59391;52.504;13.438;2022-11-15T14:16:41;100752.00;;;23.90
71564;BMP180;59391;52.504;13.438;2022-11-15T14:19:13;100749.00;;;23.70
71564;BMP180;59391;52.504;13.438;2022-11-15T14:22:18;100746.00;;;23.50
71564;BMP180;59391;52.504;13.438;2022-11-15T14:25:20;100741.00;;;23.10
71564;BMP180;59391;52.504;13.438;2022-11-15T14:28:29;100751.00;;;22.70
71564;BMP180;59391;52.504;13.438;2022-11-15T14:30:58;100756.00;;;22.40
71564;BMP180;59391;52.504;13.438;2022-11-15T14:33:30;100726.00;;;22.10
71564;BMP180;59391;52.504;13.438;2022-11-15T14:38:29;100728.00;;;21.40
71564;BMP180;59391;52.504;13.438;2022-11-15T14:40:55;100727.00;;;21.10
71564;BMP180;59391;52.504;13.438;2022-11-15T14:43:21;100732.00;;;20.80
71564;BMP180;59391;52.504;13.438;2022-11-15T14:45:47;100726.00;;;20.50
71564;BMP180;59391;52.504;13.438;2022-11-15T14:48:13;100723.00;;;20.20
71564;BMP180;59391;52.504;13.438;2022-11-15T14:50:39;100719.00;;;19.90
71564;BMP180;59391;52.504;13.438;2022-11-15T14:53:05;100719.00;;;19.70
71564;BMP180;59391;52.504;13.438;2022-11-15T14:55:34;100715.00;;;19.40
71564;BMP180;59391;52.504;13.438;2022-11-15T14:58:05;100719.00;;;19.20
71564;BMP180;59391;52.504;13.438;2022-11-15T15:00:35;100714.00;;;19.00
71564;BMP180;59391;52.504;13.438;2022-11-15T15:03:01;100709.00;;;18.80
71564;BMP180;59391;52.504;13.438;2022-11-15T15:05:42;100713.00;;;18.60
71564;BMP180;59391;52.504;13.438;2022-11-15T15:08:09;100703.00;;;18.50
71564;BMP180;59391;52.504;13.438;2022-11-15T15:10:38;100706.00;;;18.30
71564;BMP180;59391;52.504;13.438;2022-11-15T15:13:05;100691.00;;;18.20
71564;BMP180;59391;52.504;13.438;2022-11-15T15:15:34;100708.00;;;18.10
71564;BMP180;59391;52.504;13.438;2022-11-15T15:18:01;100694.00;;;18.00
71564;BMP180;59391;52.504;13.438;2022-11-15T15:20:28;100692.00;;;17.90
71564;BMP180;59391;52.504;13.438;2022-11-15T15:22:54;100697.00;;;17.80
71564;BMP180;59391;52.504;13.438;2022-11-15T15:25:24;100699.00;;;17.70
71564;BMP180;59391;52.504;13.438;2022-11-15T15:27:52;100704.00;;;17.60
71564;BMP180;59391;52.504;13.438;2022-11-15T15:30:19;100676.00;;;17.50
71564;BMP180;59391;52.504;13.438;2022-11-15T15:32:45;100693.00;;;17.40
71564;BMP180;59391;52.504;13.438;2022-11-15T15:35:16;100691.00;;;17.30
71564;BMP180;59391;52.504;13.438;2022-11-15T15:37:44;100689.00;;;17.20
71564;BMP180;59391;52.504;13.438;2022-11-15T15:40:22;100685.00;;;17.10
71564;BMP180;59391;52.504;13.438;2022-11-15T15:42:48;100685.00;;;17.10
71564;BMP180;59391;52.504;13.438;2022-11-15T15:45:16;100682.00;;;17.00
71564;BMP180;59391;52.504;13.438;2022-11-15T15:47:42;100685.00;;;16.90
71564;BMP180;59391;52.504;13.438;2022-11-15T15:50:33;100675.00;;;16.80
71564;BMP180;59391;52.504;13.438;2022-11-15T15:53:01;100686.00;;;16.80
71564;BMP180;59391;52.504;13.438;2022-11-15T15:55:28;100673.00;;;16.70
71564;BMP180;59391;52.504;13.438;2022-11-15T15:57:54;100672.00;;;16.70
71564;BMP180;59391;52.504;13.438;2022-11-15T16:00:22;100680.00;;;16.60
71564;BMP180;59391;52.504;13.438;2022-11-15T16:02:50;100661.00;;;16.60
71564;BMP180;59391;52.504;13.438;2022-11-15T16:05:16;100668.00;;;16.50
71564;BMP180;59391;52.504;13.438;2022-11-15T16:07:43;100665.00;;;16.40
71564;BMP180;59391;52.504;13.438;2022-11-15T16:10:32;100671.00;;;16.40